Florence Regional Airport

Airport
ICAO code: 
KFLO
Summary
ICAO Region: 
NAM
Territory: 
Location: 
Florence, South Carolina,
Elevation: 
146 ft
Coordinates: 
Aerial View: 
34° 11' 7" N, 79° 43' 26" W
Metar
Observation
KFLO 021453Z 23008KT 10SM CLR 15/03 A3009 RMK AO2 SLP186 T01500033 51004
Station
Florence, Florence Regional Airport
Date/Time
2021-12-02 14:53:00
Wind direction
230°
Wind speed
08 kts
Lowest cloud amount
n/a
Temperature
15°C
Dew point
3.3°C
Humidity
45%
Weather condition
n/a

Description

Florence Regional Airport is a public use airport located 5 km east of the central business district of Florence, a city in Florence County, South Carolina.

Climatology

Humid “subtropical” climate (Köppen climate classification Cfa) - characterized by hot, humid summers and cool winters. Significant amounts of precipitation occur in all seasons in most areas. Winter rainfall (and sometimes snowfall) is associated with large storms that the westerlies steer from west to east. Most summer rainfall occurs during thunderstorms and occasional tropical storms (hurricanes).

Runways

Designator Length Width Surface Rops
1/19 1828 46 ASP Yes/Yes
9/27 1981 46 ASP Yes/Yes
Airport map: 
Aerial View: 

SKYbrary Partners:

Safety knowledge contributed by: